logo
App data

Assassin's Creed Freedom Cry

Play as Adewale, an ex-slave turned Assassin fighting for freedom with the help of his own Pirate crew.
Store | Hub | SteamDB | Site
Developer: Ubisoft Montreal Publisher: Ubisoft
Genre: Action, Adventure
Languages: English, French, Italian, German, Spanish - Spain, Czech, Danish, Dutch, Finnish, Norwegian, Polish, Portuguese, Portuguese - Brazil, Russian, Swedish
Tags: Action (183), Adventure (162), Assassin (125), Open World (114), Pirates (111), Stealth (96), Singleplayer (76), Parkour (64), Third Person (55), Historical (51), Story Rich (33), Atmospheric (28), RPG (21), Naval (12), Sailing (9), Sci-fi (7), Gore (7), Great Soundtrack (6), Swordplay (6), Controller (6)
Category: Single-player
Release date: Feb 25, 2014
Price: $14.99
Old userscore: 75% Owners: 100,000 .. 200,000
Followers: 20,759
Peak concurrent players yesterday: 12
YouTube stats: 3,127 views and 53 comments for top 50 videos uploaded last week, 2 new videos uploaded yesterday.
Playtime total: 05:14 (average) 08:58 (median)

Steam Spy is still in beta, so expect major bugs.

Owners data:

Access restricted.

This feature is only available to users with special access rights. Sorry.

If you want to proceed, you need to register or log in first and then back Steam Spy on Patreon. Look for Indie or Pro pledge.

Don't forget to use the same email as on Steam Spy!

If you've recently backed Steam Spy on Patreon, please note, that it might take around 15 minutes for your access rights to sync. In most cases you'll need to re-login on Steam Spy too.

Audience in 2 weeks:

Access restricted.

This feature is only available to users with special access rights. Sorry.

If you want to proceed, you need to register or log in first and then back Steam Spy on Patreon. Look for Indie or Pro pledge.

Don't forget to use the same email as on Steam Spy!

If you've recently backed Steam Spy on Patreon, please note, that it might take around 15 minutes for your access rights to sync. In most cases you'll need to re-login on Steam Spy too.

Peak daily concurrent players:

CCU data courtesy of SteamDB. Used with permission.

Hourly concurrent players:

Followers over time

Access restricted.

This feature is only available to users with special access rights. Sorry.

If you want to proceed, you need to register or log in first and then back Steam Spy on Patreon. Look for Indie or Pro pledge.

Don't forget to use the same email as on Steam Spy!

If you've recently backed Steam Spy on Patreon, please note, that it might take around 15 minutes for your access rights to sync. In most cases you'll need to re-login on Steam Spy too.

Views for top 50 videos on YouTube for this game:

Games similar to this one:

# Game Release date
Price
Score rank
(Userscore / Metascore)
Owners
Players
Playtime (Median)
1 Red Orchestra: Ostfront 41-45 Mar 14, 2006 $4.99N/A (N/A/81%)500,000 .. 1,000,0000%00:00 (00:00)
2 Disciples II: Rise of the Elves Jul 6, 2006 $6.99N/A (N/A/80%)100,000 .. 200,0000%00:00 (00:00)
3 Cossacks: Back to War Nov 1, 2002 $4.99N/A (N/A/60%)200,000 .. 500,0000%00:00 (00:00)
4 The Longest Journey May 1, 2007 $9.99N/A (N/A/91%)200,000 .. 500,0000%00:00 (00:00)
5 Just Cause Sep 22, 2006 $6.99N/A (N/A/75%)1,000,000 .. 2,000,0000%00:00 (00:00)
6 X-Blades Feb 10, 2009 $9.99N/A (N/A/54%)500,000 .. 1,000,0000%00:00 (00:00)
7 Railroad Tycoon 3 Oct 23, 2003 $9.99N/A (N/A/80%)200,000 .. 500,0000%00:00 (00:00)
8 Penguins Arena: Sedna's World Dec 18, 2008 $5.99N/A (N/A)100,000 .. 200,0000%00:00 (00:00)
9 Tom Clancy's Rainbow Six Vegas Apr 9, 2008 $9.99N/A (N/A/85%)100,000 .. 200,0000%00:00 (00:00)
10 Brothers in Arms: Hell's Highway Oct 8, 2008 $9.99N/A (N/A/79%)100,000 .. 200,0000%00:00 (00:00)
11 Oddworld: Munch's Oddysee Dec 20, 2010 $1.69N/A (N/A)200,000 .. 500,0000%00:00 (00:00)
12 Oddworld: Stranger's Wrath HD Dec 20, 2010 $3.39N/A (N/A)200,000 .. 500,0000%00:00 (00:00)
13 Red Faction Sep 18, 2001 $9.99N/A (N/A/78%)200,000 .. 500,0000%00:00 (00:00)
14 Hunted: The Demon’s Forge May 30, 2011 $4.99N/A (N/A/61%)100,000 .. 200,0000%00:00 (00:00)
15 Knights of Honor May 10, 2005 $9.99N/A (N/A/77%)100,000 .. 200,0000%00:00 (00:00)
16 Operation Flashpoint: Red River Jul 1, 1989 N/AN/A (N/A/67%)500,000 .. 1,000,0000%00:00 (00:00)
17 Lost Planet 2 Oct 15, 2010 $3.99N/A (N/A/63%)100,000 .. 200,0000%00:00 (00:00)
18 Command & Conquer 4: Tiberian Twilight Mar 16, 2010 $19.99N/A (N/A/64%)200,000 .. 500,0000%00:00 (00:00)
19 Aliens: Colonial Marines Collection Jul 1, 1989 $29.99N/A (N/A/45%)500,000 .. 1,000,0000%00:00 (00:00)
20 Red Faction: Armageddon Jun 6, 2011 $19.99N/A (N/A/75%)500,000 .. 1,000,0000%00:00 (00:00)
21 The First Templar - Steam Special Edition May 12, 2011 $9.99N/A (N/A/57%)100,000 .. 200,0000%00:00 (00:00)
22 Jagged Alliance - Back in Action Feb 8, 2012 $19.99N/A (N/A/62%)200,000 .. 500,0000%00:00 (00:00)
23 Majesty 2 Collection Apr 19, 2011 N/AN/A (N/A)200,000 .. 500,0000%00:00 (00:00)
24 DETOUR May 16, 2011 $1.99N/A (N/A)200,000 .. 500,0002.7%00:09 (00:03)
25 Section 8: Prejudice May 4, 2011 N/AN/A (N/A/77%)500,000 .. 1,000,0000%00:00 (00:00)
26 Frozen Synapse May 26, 2011 $5.99N/A (N/A/85%)200,000 .. 500,0000%00:00 (00:00)
27 Renegade Ops Oct 26, 2011 $15N/A (N/A/76%)500,000 .. 1,000,0000%00:00 (00:00)
28 Memoir '44 Online Oct 12, 2011 FreeN/A (N/A)200,000 .. 500,0000%00:00 (00:00)
29 Sins of a Solar Empire: Trinity Feb 9, 2010 $19.99N/A (N/A/87%)100,000 .. 200,0000%00:00 (00:00)
30 Warlock - Master of the Arcane May 8, 2012 $24.99N/A (N/A/71%)500,000 .. 1,000,0000%00:00 (00:00)
31 Serious Sam 2 Jan 31, 2012 $9.99N/A (N/A/74%)1,000,000 .. 2,000,0001.1%00:56 (00:18)
32 Omerta - City of Gangsters Jan 31, 2013 $14.99N/A (N/A)200,000 .. 500,0000%00:00 (00:00)
33 Blades of Time Apr 20, 2012 $9.99N/A (N/A/63%)200,000 .. 500,0000%00:00 (00:00)
34 Viking: Battle for Asgard Oct 17, 2012 $14.99N/A (N/A)1,000,000 .. 2,000,0000%00:00 (00:00)
35 Kung Fu Strike - The Warrior's Rise Jul 24, 2012 $9.99N/A (N/A)100,000 .. 200,0000%00:00 (00:00)
36 Tom Clancy's Ghost Recon: Future Soldier Jun 26, 2012 $19.99N/A (N/A/71%)200,000 .. 500,0000%00:00 (00:00)
37 Air Conflicts: Pacific Carriers Sep 21, 2012 $9.99N/A (N/A)50,000 .. 100,0000%00:00 (00:00)
38 Tiny Troopers Aug 24, 2012 $4.99N/A (N/A/57%)100,000 .. 200,0000%00:00 (00:00)
39 Unity of Command: Stalingrad Campaign Oct 17, 2012 $9.99N/A (N/A/84%)100,000 .. 200,0000%00:00 (00:00)
40 StarDrive Apr 26, 2013 $29.99N/A (N/A/61%)200,000 .. 500,0000%00:00 (00:00)
41 Xenonauts Jun 16, 2014 $24.99N/A (N/A/77%)200,000 .. 500,0000%00:00 (00:00)
42 Clockwork Empires Oct 26, 2016 N/AN/A (N/A/58%)20,000 .. 50,0000%00:00 (00:00)
43 Tomb Raider II Nov 28, 2012 $6.99N/A (N/A)200,000 .. 500,0001.28%00:02 (00:00)
44 Tomb Raider III Nov 28, 2012 $6.99N/A (N/A)200,000 .. 500,0000%00:00 (00:00)
45 Ironclad Tactics Sep 18, 2013 $14.99N/A (N/A/69%)50,000 .. 100,0000%00:00 (00:00)
46 Hegemony Rome: The Rise of Caesar May 15, 2014 $14.99N/A (N/A)50,000 .. 100,0000%00:00 (00:00)
47 Kingdom Wars Apr 1, 2013 N/AN/A (N/A)500,000 .. 1,000,0000%00:00 (00:00)
48 God Mode Apr 19, 2013 N/AN/A (N/A/58%)200,000 .. 500,0000%00:00 (00:00)
49 Fallen Enchantress: Legendary Heroes May 22, 2013 $8.24N/A (N/A/80%)200,000 .. 500,0000%00:00 (00:00)
50 War for the Overworld Apr 2, 2015 $29.99N/A (N/A)200,000 .. 500,0002.86%02:35 (00:51)
51 Eador. Masters of the Broken World Apr 19, 2013 $19.99N/A (N/A/74%)500,000 .. 1,000,0000%00:00 (00:00)
52 Blitzkrieg 3 Jun 2, 2017 $9.99N/A (N/A/68%)100,000 .. 200,0000%00:00 (00:00)
53 Dust: An Elysian Tail May 24, 2013 $14.99N/A (N/A)1,000,000 .. 2,000,0000%00:00 (00:00)
54 Sid Meier’s Ace Patrol: Pacific Skies Nov 5, 2013 $4.99N/A (N/A)200,000 .. 500,0000%00:00 (00:00)
55 MASSIVE CHALICE Jun 1, 2015 $19.99N/A (N/A/73%)50,000 .. 100,0000%00:00 (00:00)
56 Legends of Eisenwald Jul 2, 2015 $19.99N/A (N/A/71%)100,000 .. 200,0000%00:00 (00:00)
57 Megabyte Punch Oct 15, 2013 $14.99N/A (N/A/69%)200,000 .. 500,0000%00:00 (00:00)
58 Scribblenauts Unmasked: A DC Comics Adventure Sep 24, 2013 $19.99N/A (N/A/68%)200,000 .. 500,0000%00:00 (00:00)
59 Anomaly Korea Nov 6, 2013 $4.99N/A (N/A)200,000 .. 500,0000%00:00 (00:00)
60 WARMACHINE: Tactics Nov 20, 2014 $19.99N/A (N/A)100,000 .. 200,0000%00:00 (00:00)
61 Duskers May 18, 2016 $19.99N/A (N/A/83%)100,000 .. 200,0000%00:00 (00:00)
62 Rebuild 3: Gangs of Deadsville May 29, 2015 $14.99N/A (N/A/75%)100,000 .. 200,0000%00:00 (00:00)
63 Blood Knights Nov 13, 2013 $9.99N/A (N/A)50,000 .. 100,0000%00:00 (00:00)
64 Savant - Ascent Dec 4, 2013 $1.99N/A (N/A)200,000 .. 500,0000%00:00 (00:00)
65 The Last Tinker: City of Colors May 12, 2014 $0.99N/A (N/A/72%)100,000 .. 200,0006.67%07:39 (02:33)
66 Assassin’s Creed Liberation HD Jan 15, 2014 $19.99N/A (N/A)100,000 .. 200,0000%00:00 (00:00)
67 The Red Solstice Jul 9, 2015 $9.99N/A (N/A/74%)1,000,000 .. 2,000,0000%00:00 (00:00)
68 Breach & Clear Mar 21, 2014 $14.99N/A (N/A)200,000 .. 500,0000%00:00 (00:00)
69 Batman: Arkham Origins Blackgate - Deluxe Edition Apr 1, 2014 $19.99N/A (N/A)200,000 .. 500,0000%00:00 (00:00)
70 Industry Giant 2 Aug 14, 2015 $9.99N/A (N/A)100,000 .. 200,0000%00:00 (00:00)
71 Serious Sam's Bogus Detour Jun 20, 2017 $14.99N/A (N/A/76%)20,000 .. 50,0000%00:00 (00:00)
72 Warhammer 40,000: Kill Team May 22, 2014 N/AN/A (N/A)50,000 .. 100,0000%00:00 (00:00)
73 Creeper World 3: Arc Eternal Mar 27, 2014 $14.99N/A (N/A)200,000 .. 500,0000%00:00 (00:00)
74 Castlevania: Lords of Shadow – Mirror of Fate HD Mar 27, 2014 $14.99N/A (N/A)100,000 .. 200,0000%00:00 (00:00)
75 House of the Dying Sun Nov 1, 2016 $19.99N/A (N/A/76%)100,000 .. 200,0000%00:00 (00:00)
76 Incoming Forces Mar 6, 2014 $2.99N/A (N/A/67%)100,000 .. 200,0000%00:00 (00:00)
77 Braveland Mar 17, 2014 $6.99N/A (N/A)5,000,000 .. 10,000,0000%00:00 (00:00)
78 Pandora: First Contact May 30, 2014 $29.99N/A (N/A/68%)50,000 .. 100,0000%00:00 (00:00)
79 Grey Goo Jan 23, 2015 $29.99N/A (N/A/77%)200,000 .. 500,0000%00:00 (00:00)
80 Hive Jump Jan 18, 2017 $19.99N/A (N/A)50,000 .. 100,0000%00:00 (00:00)
81 MIND: Path to Thalamus Enhanced Edition Aug 5, 2014 $11.99N/A (N/A/75%)100,000 .. 200,0000%00:00 (00:00)
82 Total Annihilation Dec 18, 2015 $4.99N/A (N/A/86%)100,000 .. 200,00025%01:30 (00:30)
83 Commando Jack Aug 22, 2014 $7.99N/A (N/A)200,000 .. 500,0000%00:00 (00:00)
84 Battle Islands Aug 6, 2014 FreeN/A (N/A)500,000 .. 1,000,0000%00:00 (00:00)
85 Hegemony III: Clash of the Ancients Aug 25, 2015 $29.99N/A (N/A)20,000 .. 50,0000%00:00 (00:00)
86 Crookz - The Big Heist Aug 25, 2015 $9.99N/A (N/A/74%)20,000 .. 50,0000%00:00 (00:00)
87 Geometry Wars 3: Dimensions Evolved Nov 25, 2014 $14.99N/A (N/A)100,000 .. 200,0000%00:00 (00:00)
88 Oddworld: New 'n' Tasty Feb 25, 2015 $6.79N/A (N/A/87%)200,000 .. 500,0000%00:00 (00:00)
89 Strife: Veteran Edition May 31, 1996 $9.99N/A (N/A)100,000 .. 200,0000%00:00 (00:00)
90 Space Hulk: Ascension Nov 12, 2014 N/AN/A (N/A/72%)50,000 .. 100,0000%00:00 (00:00)
91 Act of Aggression - Reboot Edition Sep 2, 2015 $29.99N/A (N/A/71%)100,000 .. 200,0000%00:00 (00:00)
92 Convoy Apr 21, 2015 $14.99N/A (N/A/72%)100,000 .. 200,0000%00:00 (00:00)
93 Odallus: The Dark Call Jul 15, 2015 $9.99N/A (N/A/80%)50,000 .. 100,0000%00:00 (00:00)
94 Ascension: Deckbuilding Game Dec 16, 2014 $9.99N/A (N/A)50,000 .. 100,0000%00:00 (00:00)
95 UNLOVED Sep 29, 2016 $4.99N/A (N/A)100,000 .. 200,0000%00:00 (00:00)
96 Might & Magic Heroes VII Sep 29, 2015 $29.99N/A (N/A)200,000 .. 500,0000%00:00 (00:00)
97 The Magic Circle Jul 9, 2015 $19.99N/A (N/A/79%)100,000 .. 200,0000%00:00 (00:00)
98 Impossible Creatures Steam Edition Nov 11, 2015 $9.99N/A (N/A/72%)100,000 .. 200,0000%00:00 (00:00)
99 The Warlock of Firetop Mountain Aug 30, 2016 $19.99N/A (N/A/70%)50,000 .. 100,0000%00:00 (00:00)
100 Shadow Warrior 2 Oct 13, 2016 $39.99N/A (N/A/78%)500,000 .. 1,000,0000%00:00 (00:00)
101 WASTED Jun 7, 2016 $12.99N/A (N/A/68%)100,000 .. 200,0000%00:00 (00:00)
102 Out There: Ω Edition Apr 2, 2015 $14.99N/A (N/A)100,000 .. 200,0000%00:00 (00:00)
103 Oceanhorn: Monster of Uncharted Seas Mar 17, 2015 $14.99N/A (N/A/74%)100,000 .. 200,0000%00:00 (00:00)
104 Zombie Kill of the Week - Reborn Mar 13, 2015 $6.99N/A (N/A)50,000 .. 100,0000%00:00 (00:00)
105 Particula Feb 2, 2015 $0.99N/A (N/A)500,000 .. 1,000,0000%00:00 (00:00)
106 Sun Blast: Star Fighter Apr 2, 2015 $1.99N/A (N/A)100,000 .. 200,0000%00:00 (00:00)
107 SHOGUN: Total War - Collection Jun 13, 2000 $9.99N/A (N/A)50,000 .. 100,0000%00:00 (00:00)
108 Medieval: Total War - Collection Aug 20, 2002 $9.99N/A (N/A)200,000 .. 500,0000%00:00 (00:00)
109 Train Valley Sep 16, 2015 $9.99N/A (N/A/69%)500,000 .. 1,000,0000%00:00 (00:00)
110 The Deadly Tower of Monsters Jan 19, 2016 $14.99N/A (N/A/73%)20,000 .. 50,0000%00:00 (00:00)
111 Talisman: The Horus Heresy Feb 22, 2016 N/AN/A (N/A)20,000 .. 50,0000%00:00 (00:00)
112 Uncanny Valley Apr 23, 2015 $9.99N/A (N/A/67%)50,000 .. 100,0000%00:00 (00:00)
113 Assassin’s Creed Chronicles: Russia Feb 9, 2016 $9.99N/A (N/A)100,000 .. 200,0000%00:00 (00:00)
114 The Long Journey Home May 30, 2017 $19.99N/A (N/A/68%)50,000 .. 100,0000%00:00 (00:00)
115 Slain: Back from Hell Mar 24, 2016 $12.99N/A (N/A/74%)100,000 .. 200,0000%00:00 (00:00)
116 Letter Quest: Grimm's Journey Remastered Aug 5, 2015 $7.99N/A (N/A)20,000 .. 50,0000%00:00 (00:00)
117 Tap Tap Infinity Jun 26, 2015 FreeN/A (N/A)200,000 .. 500,0000%00:00 (00:00)
118 Anima Gate of Memories Jun 2, 2016 $9.99N/A (N/A)100,000 .. 200,0000%00:00 (00:00)
119 Shadow Complex Remastered May 3, 2016 $14.99N/A (N/A)100,000 .. 200,0000%00:00 (00:00)
120 Alien Attack Jun 21, 2016 $1.99N/A (N/A)20,000 .. 50,0000%00:00 (00:00)
121 Call of Duty: Modern Warfare Remastered Jul 27, 2017 $39.99N/A (N/A)200,000 .. 500,0000%00:00 (00:00)
122 Battlevoid: Harbinger Feb 24, 2016 $9.99N/A (N/A)100,000 .. 200,0000%00:00 (00:00)
123 War of Beach Oct 15, 2015 FreeN/A (N/A)100,000 .. 200,0000%00:00 (00:00)
124 Epistory - Typing Chronicles Mar 30, 2016 $14.99N/A (N/A/74%)200,000 .. 500,0000%00:00 (00:00)
125 Concrete Jungle Sep 23, 2015 $6.99N/A (N/A/76%)100,000 .. 200,0000%00:00 (00:00)
126 Normality Jun 30, 1996 $2.99N/A (N/A)200,000 .. 500,0000%00:00 (00:00)
127 POSTAL Redux May 20, 2016 $8.99N/A (N/A/54%)100,000 .. 200,0000%00:00 (00:00)
128 Turok 2: Seeds of Evil Dec 10, 1998 $19.99N/A (N/A)50,000 .. 100,0000%00:00 (00:00)
129 Hard Reset Redux Jun 3, 2016 $19.99N/A (N/A/73%)50,000 .. 100,0000%00:00 (00:00)
130 12 is Better Than 6 Nov 20, 2015 $9.99N/A (N/A/74%)500,000 .. 1,000,0000%00:00 (00:00)
131 TY the Tasmanian Tiger Dec 12, 2016 $14.99N/A (N/A)50,000 .. 100,0000%00:00 (00:00)
132 Pang Adventures Apr 18, 2016 $9.99N/A (N/A)20,000 .. 50,0000%00:00 (00:00)
133 Age of Steel: Recharge Jan 6, 2016 $6.99N/A (N/A)100,000 .. 200,0000%00:00 (00:00)
134 Deadlight: Director's Cut Jun 21, 2016 $11.99N/A (N/A)100,000 .. 200,0000%00:00 (00:00)
135 DEAD RISING Sep 12, 2016 $5.99N/A (N/A)200,000 .. 500,0000%00:00 (00:00)
136 Hitman GO: Definitive Edition Feb 23, 2016 $7.99N/A (N/A/72%)100,000 .. 200,0000%00:00 (00:00)
137 Mushroom Wars Apr 7, 2016 $9.99N/A (N/A/80%)100,000 .. 200,0000%00:00 (00:00)
138 Marvel: Ultimate Alliance Jul 26, 2016 N/AN/A (N/A)20,000 .. 50,0000%00:00 (00:00)
139 Dead6hot Feb 1, 2016 $0.99N/A (N/A)100,000 .. 200,0000%00:00 (00:00)
140 One Troll Army May 20, 2016 FreeN/A (N/A)200,000 .. 500,0000%00:00 (00:00)
141 Survival Zombies The Inverted Evolution May 8, 2017 $4.99N/A (N/A)50,000 .. 100,0000%00:00 (00:00)
142 Diluvion: Resubmerged Feb 2, 2017 $19.99N/A (N/A/66%)100,000 .. 200,0000%00:00 (00:00)
143 GIGA WRECKER Feb 6, 2017 $19.99N/A (N/A/75%)20,000 .. 50,0000%00:00 (00:00)
144 Spell Fighter VR Mar 1, 2016 FreeN/A (N/A)100,000 .. 200,0000%00:00 (00:00)
145 Zombillie Apr 29, 2016 $4.99N/A (N/A)50,000 .. 100,0000%00:00 (00:00)
146 Song of the Deep Jul 11, 2016 $14.99N/A (N/A/71%)50,000 .. 100,0000%00:00 (00:00)
147 Vanquish May 25, 2017 $19.99N/A (N/A/78%)200,000 .. 500,0000%00:00 (00:00)
148 Roll'd Apr 14, 2016 $0.99N/A (N/A)50,000 .. 100,0000%00:00 (00:00)
149 STANDBY Jan 6, 2017 $2.99N/A (N/A)50,000 .. 100,0000%00:00 (00:00)
150 Caesar 3 May 30, 1999 $5.99N/A (N/A)200,000 .. 500,0000%00:00 (00:00)
151 Mages of Mystralia May 18, 2017 $19.99N/A (N/A/74%)100,000 .. 200,0000%00:00 (00:00)
152 Wonder Boy: The Dragon's Trap Jun 8, 2017 $19.99N/A (N/A)100,000 .. 200,0000%00:00 (00:00)
153 Dead Rising 4 Mar 14, 2017 $7.49N/A (N/A/74%)200,000 .. 500,0000%00:00 (00:00)
154 Serious Sam VR: The First Encounter Mar 30, 2017 $39.99N/A (N/A)50,000 .. 100,0000%00:00 (00:00)
155 Serious Sam Fusion 2017 (beta) tba - Add to your Wishlist! $14.99N/A (N/A)0 .. 20,0000%00:00 (00:00)
156 Pharaoh + Cleopatra Oct 31, 1999 $9.99N/A (N/A)200,000 .. 500,0000%00:00 (00:00)
157 Zeus + Poseidon Dec 15, 2016 $9.99N/A (N/A)200,000 .. 500,0000%00:00 (00:00)
158 Hyper Knights May 19, 2017 $4.99N/A (N/A)50,000 .. 100,0000%00:00 (00:00)
159 Sudden Strike Gold Jan 24, 2001 $5.99N/A (N/A)50,000 .. 100,0000%00:00 (00:00)
160 Dies irae ~Amantes amentes~ Jun 2, 2017 FreeN/A (N/A)50,000 .. 100,0000%00:00 (00:00)

Tags over time:

Access restricted.

This feature is only available to users with special access rights. Sorry.

If you want to proceed, you need to register or log in first and then back Steam Spy on Patreon. Look for Indie or Pro pledge.

Don't forget to use the same email as on Steam Spy!

If you've recently backed Steam Spy on Patreon, please note, that it might take around 15 minutes for your access rights to sync. In most cases you'll need to re-login on Steam Spy too.

Owners of this game also own:

Access restricted.

This feature is only available to users with special access rights. Sorry.

If you want to proceed, you need to register or log in first and then back Steam Spy on Patreon. Look for Indie or Pro pledge.

Don't forget to use the same email as on Steam Spy!

If you've recently backed Steam Spy on Patreon, please note, that it might take around 15 minutes for your access rights to sync. In most cases you'll need to re-login on Steam Spy too.

Playtime distribution:

Access restricted.

This feature is only available to users with special access rights. Sorry.

If you want to proceed, you need to register or log in first and then back Steam Spy on Patreon. Look for Indie or Pro pledge.

Don't forget to use the same email as on Steam Spy!

If you've recently backed Steam Spy on Patreon, please note, that it might take around 15 minutes for your access rights to sync. In most cases you'll need to re-login on Steam Spy too.

Playtime (2 weeks):

Access restricted.

This feature is only available to users with special access rights. Sorry.

If you want to proceed, you need to register or log in first and then back Steam Spy on Patreon. Look for Indie or Pro pledge.

Don't forget to use the same email as on Steam Spy!

If you've recently backed Steam Spy on Patreon, please note, that it might take around 15 minutes for your access rights to sync. In most cases you'll need to re-login on Steam Spy too.

User reviews:

Login required.

Please register or log in to see this information.